createdAt,value
2019-05-06T12:29:12.780Z,11.54
2019-05-06T12:31:42.994Z,11.31
2019-05-06T12:34:14.650Z,11.30
2019-05-06T12:36:44.673Z,11.06
2019-05-06T12:39:18.549Z,10.95
2019-05-06T12:42:05.904Z,10.82
2019-05-06T12:44:38.758Z,10.70
2019-05-06T12:47:14.247Z,10.72
2019-05-06T12:49:43.076Z,10.66
2019-05-06T12:52:12.519Z,10.61
2019-05-06T12:54:44.068Z,10.68
2019-05-06T12:57:15.888Z,10.65
2019-05-06T12:59:47.770Z,10.80
2019-05-06T13:02:23.841Z,10.64
2019-05-06T13:05:00.689Z,10.64
2019-05-06T13:07:32.532Z,10.69
2019-05-06T13:10:07.830Z,10.72
2019-05-06T13:12:39.158Z,10.78
2019-05-06T13:15:13.128Z,10.78
2019-05-06T13:17:42.593Z,10.73
2019-05-06T13:20:14.592Z,10.82
2019-05-06T13:22:49.786Z,10.92
2019-05-06T13:25:23.395Z,10.98
2019-05-06T13:27:53.238Z,10.98
2019-05-06T13:30:23.895Z,11.00
2019-05-06T13:32:55.447Z,11.13
2019-05-06T13:35:25.242Z,11.09
2019-05-06T13:37:55.200Z,11.08
2019-05-06T13:40:27.369Z,11.21
2019-05-06T13:43:13.486Z,11.04
2019-05-06T13:45:48.657Z,10.94
2019-05-06T13:48:32.920Z,11.20
2019-05-06T13:54:06.879Z,11.55
2019-05-06T13:56:38.272Z,11.72
2019-05-06T13:59:08.718Z,11.65
2019-05-06T14:01:43.858Z,11.52
2019-05-06T14:04:19.122Z,11.49
2019-05-06T14:06:52.645Z,11.59
2019-05-06T14:09:29.500Z,11.46
2019-05-06T14:11:56.012Z,11.60
2019-05-06T14:14:28.088Z,11.44
2019-05-06T14:16:57.813Z,11.18
2019-05-06T14:19:27.441Z,11.18
2019-05-06T14:21:57.107Z,11.23
2019-05-06T14:24:27.880Z,11.38
2019-05-06T14:27:05.049Z,11.62
2019-05-06T14:29:36.326Z,11.71
2019-05-06T14:32:06.086Z,11.47
2019-05-06T14:34:35.681Z,11.34
2019-05-06T14:37:05.318Z,11.23
2019-05-06T14:39:49.897Z,11.19
2019-05-06T14:42:12.737Z,11.14
2019-05-06T14:44:43.306Z,11.12
2019-05-06T14:47:17.956Z,11.11
2019-05-06T14:49:47.290Z,10.94
2019-05-06T14:52:17.042Z,10.83
2019-05-06T14:54:48.308Z,10.72
2019-05-06T14:57:19.343Z,10.66
2019-05-06T14:59:50.958Z,10.57
2019-05-06T15:02:26.041Z,10.50
2019-05-06T15:04:53.668Z,10.49
2019-05-06T15:07:23.667Z,10.54
2019-05-06T15:10:02.467Z,10.58
2019-05-06T15:12:24.746Z,10.50
2019-05-06T15:14:54.397Z,10.38
2019-05-06T15:17:24.037Z,10.31
2019-05-06T15:19:53.787Z,10.22
2019-05-06T15:22:23.433Z,10.14
2019-05-06T15:24:53.812Z,10.09
2019-05-06T15:27:23.867Z,10.18
2019-05-06T15:29:55.698Z,10.15
2019-05-06T15:32:32.826Z,10.14
2019-05-06T15:35:04.097Z,10.15
2019-05-06T15:37:35.364Z,10.15
2019-05-06T15:40:07.717Z,10.06
2019-05-06T15:42:37.378Z,9.96
2019-05-06T15:45:07.336Z,10.07
2019-05-06T15:47:38.382Z,10.00
2019-05-06T15:50:08.617Z,10.01
2019-05-06T15:52:38.314Z,9.98
2019-05-06T15:55:08.109Z,10.06
2019-05-06T15:57:37.836Z,9.97
2019-05-06T16:00:07.505Z,10.06
2019-05-06T16:02:37.198Z,10.08
2019-05-06T16:05:13.708Z,10.14
2019-05-06T16:07:38.265Z,10.16
2019-05-06T16:10:08.064Z,10.29
2019-05-06T16:12:37.803Z,10.26
2019-05-06T16:15:08.365Z,10.22
2019-05-06T16:17:38.034Z,10.09
2019-05-06T16:20:07.661Z,10.12
2019-05-06T16:22:37.427Z,10.06
2019-05-06T16:25:15.231Z,10.11
2019-05-06T16:27:46.571Z,10.09
2019-05-06T16:30:17.874Z,10.10
2019-05-06T16:32:47.589Z,10.10
2019-05-06T16:35:17.323Z,10.06
2019-05-06T16:37:46.991Z,10.03
2019-05-06T16:40:17.658Z,10.02
2019-05-06T16:42:47.653Z,10.06
2019-05-06T16:45:18.889Z,10.07
2019-05-06T16:47:48.858Z,9.96
2019-05-06T16:50:18.680Z,9.85
2019-05-06T16:52:48.410Z,9.78
2019-05-06T16:55:32.963Z,9.82
2019-05-06T16:58:04.829Z,9.85
2019-05-06T17:00:36.118Z,9.77
2019-05-06T17:03:07.425Z,9.64
2019-05-06T17:05:38.689Z,9.59
2019-05-06T17:08:08.346Z,9.58
2019-05-06T17:10:40.277Z,9.54
2019-05-06T17:13:09.523Z,9.42
2019-05-06T17:15:39.179Z,9.47
2019-05-06T17:18:08.803Z,9.43
2019-05-06T17:20:38.429Z,9.44
2019-05-06T17:23:08.154Z,9.43
2019-05-06T17:25:37.768Z,9.38
2019-05-06T17:28:14.605Z,9.32
2019-05-06T17:30:46.908Z,9.38
2019-05-06T17:33:34.320Z,9.31
2019-05-06T17:36:05.467Z,9.26
2019-05-06T17:38:39.512Z,9.10
2019-05-06T17:41:09.236Z,9.01
2019-05-06T17:43:41.081Z,8.92
2019-05-06T17:46:13.872Z,8.87
2019-05-06T17:48:52.895Z,8.84
2019-05-06T17:51:26.677Z,8.86
2019-05-06T17:53:57.988Z,8.80
2019-05-06T17:56:27.720Z,8.76
2019-05-06T17:58:57.436Z,8.68
2019-05-06T18:01:28.702Z,8.65
2019-05-06T18:03:58.432Z,8.65
2019-05-06T18:06:28.058Z,8.68
2019-05-06T18:08:57.739Z,8.65
2019-05-06T18:11:27.372Z,8.60
2019-05-06T18:13:56.997Z,8.49
2019-05-06T18:16:26.664Z,8.43
2019-05-06T18:18:56.288Z,8.37
2019-05-06T18:21:26.288Z,8.34
2019-05-06T18:23:55.913Z,8.37
2019-05-06T18:26:25.571Z,8.34
2019-05-06T18:28:55.192Z,8.28
2019-05-06T18:31:24.854Z,8.23
2019-05-06T18:33:55.757Z,8.19
2019-05-06T18:36:25.423Z,8.16
2019-05-06T18:38:55.114Z,8.15
2019-05-06T18:41:24.777Z,8.13
2019-05-06T18:43:54.436Z,8.11
2019-05-06T18:46:24.062Z,8.08
2019-05-06T18:48:53.808Z,8.04
2019-05-06T18:51:23.514Z,8.01
2019-05-06T18:53:53.149Z,8.02
2019-05-06T18:56:22.809Z,8.00
2019-05-06T18:58:53.142Z,7.93
2019-05-06T19:01:23.409Z,7.92
2019-05-06T19:04:04.745Z,7.87
2019-05-06T19:06:34.532Z,7.84
2019-05-06T19:09:10.533Z,7.80
2019-05-06T19:11:40.305Z,7.78
2019-05-06T19:14:09.969Z,7.75
2019-05-06T19:16:49.932Z,7.72
2019-05-06T19:19:12.493Z,7.70
2019-05-06T19:21:43.476Z,7.72
2019-05-06T19:24:13.141Z,7.69
2019-05-06T19:26:43.078Z,7.67
2019-05-06T19:29:13.105Z,7.73
2019-05-06T19:31:44.982Z,7.73
2019-05-06T19:34:14.140Z,7.72
2019-05-06T19:36:43.798Z,7.80
2019-05-06T19:39:14.495Z,7.80
2019-05-06T19:41:44.161Z,7.78
2019-05-06T19:44:14.097Z,7.82
2019-05-06T19:46:43.729Z,7.77
2019-05-06T19:49:13.387Z,7.72
2019-05-06T19:51:43.085Z,7.70
2019-05-06T19:54:12.816Z,7.67
2019-05-06T19:56:42.497Z,7.64
2019-05-06T19:59:12.974Z,7.61
2019-05-06T20:01:43.108Z,7.59
2019-05-06T20:04:13.251Z,7.57
2019-05-06T20:06:44.965Z,7.58
2019-05-06T20:09:22.257Z,7.55
2019-05-06T20:11:59.576Z,7.59
2019-05-06T20:14:29.229Z,7.59
2019-05-06T20:16:58.894Z,7.58
2019-05-06T20:19:31.183Z,7.58
2019-05-06T20:22:01.964Z,7.58
2019-05-06T20:24:33.266Z,7.57
2019-05-06T20:27:03.181Z,7.56
2019-05-06T20:29:35.183Z,7.54
2019-05-06T20:32:04.325Z,7.54
2019-05-06T20:34:34.020Z,7.56
2019-05-06T20:37:03.640Z,7.57
2019-05-06T20:39:33.450Z,7.57
2019-05-06T20:42:03.080Z,7.55
2019-05-06T20:44:32.777Z,7.53
2019-05-06T20:47:03.137Z,7.53
2019-05-06T20:49:33.367Z,7.51
2019-05-06T20:52:03.366Z,7.51
2019-05-06T20:54:32.987Z,7.50
2019-05-06T20:57:02.734Z,7.50
2019-05-06T20:59:32.416Z,7.48
2019-05-06T21:02:03.816Z,7.49
2019-05-06T21:04:33.516Z,7.48
2019-05-06T21:07:03.183Z,7.49
2019-05-06T21:09:32.805Z,7.50
2019-05-06T21:12:02.505Z,7.51
2019-05-06T21:14:32.433Z,7.50
2019-05-06T21:17:02.669Z,7.52
2019-05-06T21:19:33.175Z,7.55
2019-05-06T21:22:03.009Z,7.52
2019-05-06T21:24:35.736Z,7.54
2019-05-06T21:27:04.053Z,7.47
2019-05-06T21:29:33.773Z,7.49
2019-05-06T21:32:03.496Z,7.47
2019-05-06T21:34:33.258Z,7.49
2019-05-06T21:37:03.111Z,7.50
2019-05-06T21:39:33.045Z,7.53
2019-05-06T21:42:02.908Z,7.48
2019-05-06T21:44:32.597Z,7.48
2019-05-06T21:47:03.059Z,7.48
2019-05-06T21:49:33.073Z,7.47
2019-05-06T21:52:02.726Z,7.46
2019-05-06T21:54:32.860Z,7.44
2019-05-06T21:57:03.150Z,7.43
2019-05-06T21:59:32.796Z,7.42
2019-05-06T22:02:04.084Z,7.41
2019-05-06T22:04:33.783Z,7.37
2019-05-06T22:07:03.472Z,7.37
2019-05-06T22:09:33.203Z,7.37
2019-05-06T22:12:02.893Z,7.34
2019-05-06T22:14:32.726Z,7.34
2019-05-06T22:17:04.140Z,7.34
2019-05-06T22:19:33.944Z,7.32
2019-05-06T22:22:05.273Z,7.30
2019-05-06T22:24:48.440Z,7.30
2019-05-06T22:27:18.142Z,7.30
2019-05-06T22:29:47.798Z,7.30
2019-05-06T22:32:17.494Z,7.27
2019-05-06T22:34:47.141Z,7.27
2019-05-06T22:37:16.896Z,7.24
2019-05-06T22:39:46.593Z,7.21
2019-05-06T22:42:16.340Z,7.19
2019-05-06T22:44:45.952Z,7.17
2019-05-06T22:47:15.732Z,7.16
2019-05-06T22:49:45.462Z,7.17
2019-05-06T22:52:16.267Z,7.17
2019-05-06T22:54:45.913Z,7.13
2019-05-06T22:57:15.552Z,7.12
2019-05-06T22:59:46.384Z,7.10
2019-05-06T23:02:17.643Z,7.10
2019-05-06T23:04:50.112Z,7.09
2019-05-06T23:07:19.746Z,7.05
2019-05-06T23:09:49.367Z,7.03
2019-05-06T23:12:19.094Z,7.00
2019-05-06T23:14:48.750Z,6.96
2019-05-06T23:17:18.378Z,6.91
2019-05-06T23:19:48.039Z,6.87
2019-05-06T23:22:17.765Z,6.84
2019-05-06T23:24:47.389Z,6.79
2019-05-06T23:27:17.107Z,6.75
2019-05-06T23:29:46.992Z,6.72
2019-05-06T23:32:16.751Z,6.67
2019-05-06T23:34:46.330Z,6.63
2019-05-06T23:37:17.785Z,6.56
2019-05-06T23:40:25.230Z,6.49
2019-05-06T23:43:33.039Z,6.44
2019-05-06T23:46:39.605Z,6.38
2019-05-06T23:49:45.510Z,6.32
2019-05-06T23:52:52.005Z,6.26
2019-05-06T23:55:58.472Z,6.19
2019-05-06T23:58:27.155Z,6.10
